Bordertown, Nevada
Current Conditions -  °F | °C
As of 7:55 PM on Friday 28 Nov 2014 (Local Time) from KRTS Reporting Station
Clear Clear  
Wind Chill: 44°   Ceiling: Unl
Heat Index: 48°   Visibility: 10mi
Dew Point:   Wind: 9mph
Humidity: 13%   Direction: 310°NW
Pressure: 29.83"   Gusts: 21mph
Location:  39.7378°N, 119.889°W
Report Text: KRTS 290355Z AUTO 31008G18KT 10SM CLR 09/M18 A2983 RMK AO2
Loading
Personal Weather Stations






























Interactive Weather Map New forecast layout! Learn more

10-Day Weather Forecast

Advertisements
Track Severe Weather on mobile